createdAt,value
2024-03-24T00:04:18.438Z,2.44
2024-03-24T00:09:21.034Z,2.43
2024-03-24T00:14:23.657Z,2.41
2024-03-24T00:19:26.743Z,2.41
2024-03-24T00:24:29.371Z,2.43
2024-03-24T00:29:32.657Z,2.42
2024-03-24T00:34:35.389Z,2.43
2024-03-24T00:39:38.020Z,2.46
2024-03-24T00:44:40.712Z,2.50
2024-03-24T00:49:43.450Z,2.51
2024-03-24T00:54:46.094Z,2.53
2024-03-24T00:59:48.975Z,2.55
2024-03-24T01:04:51.606Z,2.58
2024-03-24T01:09:55.917Z,2.62
2024-03-24T01:14:58.566Z,2.64
2024-03-24T01:20:01.199Z,2.63
2024-03-24T01:25:04.303Z,2.62
2024-03-24T01:30:08.028Z,2.60
2024-03-24T01:35:10.726Z,2.58
2024-03-24T01:40:13.680Z,2.61
2024-03-24T01:45:16.356Z,2.67
2024-03-24T01:50:19.029Z,2.70
2024-03-24T01:55:22.267Z,2.69
2024-03-24T02:00:25.216Z,2.64
2024-03-24T02:05:28.920Z,2.65
2024-03-24T02:10:31.916Z,2.67
2024-03-24T02:15:34.649Z,2.68
2024-03-24T02:20:37.363Z,2.71
2024-03-24T02:25:40.003Z,2.73
2024-03-24T02:30:42.690Z,2.80
2024-03-24T02:35:46.478Z,2.83
2024-03-24T02:40:49.699Z,2.82
2024-03-24T02:45:59.227Z,2.84
2024-03-24T02:51:01.876Z,2.84
2024-03-24T02:56:06.268Z,2.86
2024-03-24T03:01:09.253Z,2.90
2024-03-24T03:06:15.930Z,2.94
2024-03-24T03:11:19.217Z,2.91
2024-03-24T03:16:21.859Z,2.88
2024-03-24T03:21:26.380Z,2.84
2024-03-24T03:26:29.486Z,2.83
2024-03-24T03:31:32.086Z,2.81
2024-03-24T03:36:34.746Z,2.79
2024-03-24T03:41:41.254Z,2.80
2024-03-24T03:46:44.330Z,2.80
2024-03-24T03:51:54.454Z,2.80
2024-03-24T03:56:57.100Z,2.81
2024-03-24T04:02:00.104Z,2.82
2024-03-24T04:07:03.251Z,2.84
2024-03-24T04:12:07.247Z,2.88
2024-03-24T04:17:09.980Z,2.95
2024-03-24T04:22:13.562Z,2.99
2024-03-24T04:27:17.449Z,3.03
2024-03-24T04:32:20.114Z,3.08
2024-03-24T04:37:23.300Z,3.09
2024-03-24T04:42:27.197Z,3.09
2024-03-24T04:47:30.987Z,3.12
2024-03-24T04:52:33.863Z,3.15
2024-03-24T04:57:36.508Z,3.15
2024-03-24T05:02:39.203Z,3.19
2024-03-24T05:07:41.944Z,3.24
2024-03-24T05:12:44.565Z,3.30
2024-03-24T05:17:47.754Z,3.32
2024-03-24T05:22:50.401Z,3.33
2024-03-24T05:27:54.601Z,3.36
2024-03-24T05:32:57.341Z,3.38
2024-03-24T05:38:00.538Z,3.39
2024-03-24T05:43:03.838Z,3.39
2024-03-24T05:48:07.495Z,3.40
2024-03-24T05:53:10.186Z,3.40
2024-03-24T05:58:12.939Z,3.40
2024-03-24T06:03:15.782Z,3.43
2024-03-24T06:08:20.957Z,3.47
2024-03-24T06:13:26.738Z,3.54
2024-03-24T06:18:32.180Z,3.60
2024-03-24T06:23:34.858Z,3.66
2024-03-24T06:28:38.060Z,3.75
2024-03-24T06:33:40.703Z,3.89
2024-03-24T06:38:43.325Z,4.03
2024-03-24T06:43:46.613Z,4.20
2024-03-24T06:48:50.218Z,4.25
2024-03-24T06:53:53.337Z,4.22
2024-03-24T06:58:56.847Z,4.20
2024-03-24T07:04:00.126Z,4.19
2024-03-24T07:09:02.786Z,4.16
2024-03-24T07:14:05.378Z,4.15
2024-03-24T07:19:08.509Z,4.20
2024-03-24T07:24:11.211Z,4.25
2024-03-24T07:29:13.959Z,4.23
2024-03-24T07:34:16.955Z,4.26
2024-03-24T07:39:19.685Z,4.26
2024-03-24T07:44:22.469Z,4.25
2024-03-24T07:49:25.121Z,4.25
2024-03-24T07:54:28.129Z,4.29
2024-03-24T07:59:31.274Z,4.35
2024-03-24T08:04:33.956Z,4.43
2024-03-24T08:09:36.742Z,4.50
2024-03-24T08:14:42.021Z,4.56
2024-03-24T08:19:44.667Z,4.62
2024-03-24T08:24:47.777Z,4.65
2024-03-24T08:29:50.502Z,4.65
2024-03-24T08:34:53.268Z,4.66
2024-03-24T08:39:55.922Z,4.76
2024-03-24T08:44:58.584Z,4.89
2024-03-24T08:50:01.211Z,5.03
2024-03-24T08:55:04.355Z,5.36
2024-03-24T09:00:10.303Z,5.66
2024-03-24T09:05:13.018Z,5.89
2024-03-24T09:10:15.780Z,5.95
2024-03-24T09:15:20.191Z,6.04
2024-03-24T09:20:22.875Z,6.37
2024-03-24T09:25:25.646Z,6.49
2024-03-24T09:30:28.395Z,6.50
2024-03-24T09:35:32.771Z,6.50
2024-03-24T09:40:37.078Z,6.57
2024-03-24T09:45:40.181Z,6.68
2024-03-24T09:50:44.125Z,6.70
2024-03-24T09:55:47.232Z,6.81
2024-03-24T10:00:50.192Z,7.30
2024-03-24T10:05:53.249Z,7.99
2024-03-24T10:10:56.202Z,8.15
2024-03-24T10:16:14.799Z,7.81
2024-03-24T10:21:21.457Z,7.42
2024-03-24T10:26:24.132Z,7.27
2024-03-24T10:31:26.863Z,7.23
2024-03-24T10:36:32.605Z,7.15
2024-03-24T10:41:36.626Z,7.22
2024-03-24T10:46:41.288Z,7.34
2024-03-24T10:51:44.836Z,7.34
2024-03-24T10:56:48.018Z,7.41
2024-03-24T11:01:51.986Z,7.69
2024-03-24T11:06:56.419Z,7.54
2024-03-24T11:11:59.625Z,7.42
2024-03-24T11:17:04.576Z,7.82
2024-03-24T11:22:08.478Z,8.08
2024-03-24T11:27:14.995Z,7.90
2024-03-24T11:32:18.228Z,8.16
2024-03-24T11:37:35.228Z,8.61
2024-03-24T11:42:40.068Z,8.61
2024-03-24T11:47:44.738Z,8.22
2024-03-24T11:52:50.957Z,7.87
2024-03-24T11:57:55.544Z,7.62
2024-03-24T12:02:58.533Z,7.49
2024-03-24T12:08:01.385Z,7.55
2024-03-24T12:13:04.529Z,7.87
2024-03-24T12:18:11.433Z,9.21
2024-03-24T12:23:16.863Z,10.62
2024-03-24T12:28:20.298Z,11.50
2024-03-24T12:33:24.948Z,11.04
2024-03-24T12:38:27.725Z,10.23
2024-03-24T12:43:31.572Z,9.85
2024-03-24T12:48:34.405Z,9.55
2024-03-24T12:54:01.648Z,9.96
2024-03-24T12:59:04.396Z,9.25
2024-03-24T13:04:08.316Z,9.00
2024-03-24T13:09:13.318Z,10.42
2024-03-24T13:14:16.110Z,11.03
2024-03-24T13:19:35.024Z,11.53
2024-03-24T13:24:45.569Z,11.39
2024-03-24T13:29:48.224Z,12.38
2024-03-24T13:34:51.276Z,13.45
2024-03-24T13:40:36.470Z,12.66
2024-03-24T13:46:16.690Z,12.24
2024-03-24T13:51:20.242Z,12.96
2024-03-24T13:56:22.931Z,12.42
2024-03-24T14:01:25.623Z,11.49
2024-03-24T14:06:28.380Z,10.70
2024-03-24T14:11:32.650Z,10.39
2024-03-24T14:16:48.392Z,9.98
2024-03-24T14:21:53.672Z,9.50
2024-03-24T14:26:56.305Z,9.21
2024-03-24T14:31:58.937Z,8.91
2024-03-24T14:37:13.853Z,8.55
2024-03-24T14:42:35.509Z,8.03
2024-03-24T14:48:04.925Z,7.80
2024-03-24T14:53:07.728Z,8.90
2024-03-24T14:58:10.401Z,10.00
2024-03-24T15:03:14.237Z,11.12
2024-03-24T15:08:17.138Z,10.31
2024-03-24T15:13:19.788Z,9.41
2024-03-24T15:18:22.429Z,8.69
2024-03-24T15:23:25.079Z,7.84
2024-03-24T15:28:27.812Z,7.20
2024-03-24T15:33:31.410Z,7.46
2024-03-24T15:38:34.097Z,9.17
2024-03-24T15:43:37.056Z,9.96
2024-03-24T15:48:40.076Z,9.96
2024-03-24T15:53:43.393Z,10.29
2024-03-24T15:59:06.892Z,10.95
2024-03-24T16:04:09.611Z,11.11
2024-03-24T16:09:19.260Z,11.61
2024-03-24T16:14:35.886Z,11.65
2024-03-24T16:19:38.700Z,11.67
2024-03-24T16:24:43.446Z,12.10
2024-03-24T16:29:47.765Z,11.21
2024-03-24T16:34:50.403Z,10.29
2024-03-24T16:39:53.102Z,9.53
2024-03-24T16:44:55.860Z,8.81
2024-03-24T16:49:59.062Z,8.27
2024-03-24T16:55:02.598Z,7.87
2024-03-24T17:00:06.765Z,7.57
2024-03-24T17:05:09.484Z,7.30
2024-03-24T17:10:12.239Z,7.07
2024-03-24T17:15:18.280Z,6.89
2024-03-24T17:20:21.049Z,6.76
2024-03-24T17:25:23.777Z,6.66
2024-03-24T17:30:30.316Z,6.62
2024-03-24T17:35:33.762Z,6.58
2024-03-24T17:40:36.525Z,6.52
2024-03-24T17:45:39.301Z,6.49
2024-03-24T17:50:42.155Z,6.44
2024-03-24T17:55:44.824Z,6.32
2024-03-24T18:00:47.508Z,6.19
2024-03-24T18:05:50.230Z,6.04
2024-03-24T18:10:52.939Z,5.93
2024-03-24T18:15:55.834Z,5.87
2024-03-24T18:21:01.108Z,5.82
2024-03-24T18:26:06.220Z,5.75
2024-03-24T18:31:08.924Z,5.66
2024-03-24T18:36:14.380Z,5.55
2024-03-24T18:41:18.414Z,5.43
2024-03-24T18:46:22.804Z,5.37
2024-03-24T18:51:25.738Z,5.31
2024-03-24T18:56:29.830Z,5.24
2024-03-24T19:01:32.539Z,5.16
2024-03-24T19:06:35.347Z,5.11
2024-03-24T19:11:41.596Z,5.08
2024-03-24T19:16:44.368Z,5.07
2024-03-24T19:21:47.316Z,5.09
2024-03-24T19:26:50.072Z,5.12
2024-03-24T19:31:52.964Z,5.17
2024-03-24T19:36:57.153Z,5.18
2024-03-24T19:42:00.657Z,5.13
2024-03-24T19:47:05.251Z,5.06
2024-03-24T19:52:08.988Z,4.99
2024-03-24T19:57:13.493Z,4.92
2024-03-24T20:02:16.189Z,4.87
2024-03-24T20:07:24.296Z,4.85
2024-03-24T20:12:28.298Z,4.86
2024-03-24T20:17:31.035Z,4.89
2024-03-24T20:22:34.616Z,4.88
2024-03-24T20:27:37.378Z,4.82
2024-03-24T20:32:40.599Z,4.73
2024-03-24T20:37:43.395Z,4.66
2024-03-24T20:42:47.051Z,4.60
2024-03-24T20:47:49.679Z,4.54
2024-03-24T20:52:53.019Z,4.53
2024-03-24T20:57:56.992Z,4.50
2024-03-24T21:03:00.079Z,4.47
2024-03-24T21:08:02.924Z,4.41
2024-03-24T21:13:05.647Z,4.37
2024-03-24T21:18:08.391Z,4.37
2024-03-24T21:23:12.620Z,4.39
2024-03-24T21:28:17.114Z,4.45
2024-03-24T21:33:23.086Z,4.47
2024-03-24T21:38:44.183Z,4.42
2024-03-24T21:43:46.826Z,4.33
2024-03-24T21:48:49.429Z,4.26
2024-03-24T21:53:52.028Z,4.18
2024-03-24T21:58:55.977Z,4.10
2024-03-24T22:03:58.570Z,4.08
2024-03-24T22:09:01.148Z,4.08
2024-03-24T22:14:03.799Z,4.02
2024-03-24T22:19:07.208Z,3.93
2024-03-24T22:24:09.818Z,3.86
2024-03-24T22:29:13.733Z,3.83
2024-03-24T22:34:17.772Z,3.84
2024-03-24T22:39:20.713Z,3.89
2024-03-24T22:44:23.431Z,3.91
2024-03-24T22:49:26.221Z,3.90
2024-03-24T22:54:28.835Z,3.89
2024-03-24T22:59:33.340Z,3.88
2024-03-24T23:04:36.132Z,3.93
2024-03-24T23:09:39.867Z,4.00
2024-03-24T23:14:42.505Z,4.05
2024-03-24T23:19:45.199Z,4.07
2024-03-24T23:24:48.193Z,4.05
2024-03-24T23:29:50.993Z,4.04
2024-03-24T23:34:53.631Z,4.03
2024-03-24T23:39:57.264Z,4.06
2024-03-24T23:45:00.428Z,4.11
2024-03-24T23:50:03.444Z,4.18
2024-03-24T23:55:08.276Z,4.22
